sensor_id;sensor_type;location;lat;lon;timestamp;P1;durP1;ratioP1;P2;durP2;ratioP2
26484;SDS011;18083;50.560;7.262;2024-03-17T00:04:31;8.07;;;5.37;;
26484;SDS011;18083;50.560;7.262;2024-03-17T00:44:19;5.83;;;4.60;;
26484;SDS011;18083;50.560;7.262;2024-03-17T00:46:54;5.43;;;4.47;;
26484;SDS011;18083;50.560;7.262;2024-03-17T00:49:36;8.40;;;5.17;;
26484;SDS011;18083;50.560;7.262;2024-03-17T03:13:21;4.50;;;3.83;;
26484;SDS011;18083;50.560;7.262;2024-03-17T03:15:48;6.00;;;3.50;;
26484;SDS011;18083;50.560;7.262;2024-03-17T03:18:16;4.57;;;3.70;;
26484;SDS011;18083;50.560;7.262;2024-03-17T03:20:49;5.43;;;3.40;;
26484;SDS011;18083;50.560;7.262;2024-03-17T03:23:12;4.27;;;3.20;;
26484;SDS011;18083;50.560;7.262;2024-03-17T03:25:39;5.10;;;3.37;;
26484;SDS011;18083;50.560;7.262;2024-03-17T03:28:08;4.53;;;4.00;;
26484;SDS011;18083;50.560;7.262;2024-03-17T03:30:36;5.83;;;3.23;;
26484;SDS011;18083;50.560;7.262;2024-03-17T03:33:03;4.33;;;3.40;;
26484;SDS011;18083;50.560;7.262;2024-03-17T03:35:31;4.40;;;3.23;;
26484;SDS011;18083;50.560;7.262;2024-03-17T03:37:58;6.80;;;3.73;;
26484;SDS011;18083;50.560;7.262;2024-03-17T03:40:26;5.63;;;4.07;;
26484;SDS011;18083;50.560;7.262;2024-03-17T03:42:54;6.40;;;3.83;;
26484;SDS011;18083;50.560;7.262;2024-03-17T03:45:22;8.57;;;4.23;;
26484;SDS011;18083;50.560;7.262;2024-03-17T03:47:50;11.67;;;4.10;;
26484;SDS011;18083;50.560;7.262;2024-03-17T03:50:19;6.43;;;3.90;;
26484;SDS011;18083;50.560;7.262;2024-03-17T03:52:47;5.63;;;3.63;;
26484;SDS011;18083;50.560;7.262;2024-03-17T03:55:15;7.80;;;4.13;;
26484;SDS011;18083;50.560;7.262;2024-03-17T04:00:18;6.10;;;4.30;;
26484;SDS011;18083;50.560;7.262;2024-03-17T04:02:50;5.00;;;4.40;;
26484;SDS011;18083;50.560;7.262;2024-03-17T04:05:18;5.57;;;3.67;;
26484;SDS011;18083;50.560;7.262;2024-03-17T04:07:46;6.70;;;4.07;;
26484;SDS011;18083;50.560;7.262;2024-03-17T04:10:14;5.50;;;3.80;;
26484;SDS011;18083;50.560;7.262;2024-03-17T04:12:42;7.97;;;4.00;;
26484;SDS011;18083;50.560;7.262;2024-03-17T04:15:09;4.30;;;3.57;;
26484;SDS011;18083;50.560;7.262;2024-03-17T04:17:40;4.77;;;3.90;;
26484;SDS011;18083;50.560;7.262;2024-03-17T04:20:08;5.00;;;3.90;;
26484;SDS011;18083;50.560;7.262;2024-03-17T04:22:37;6.00;;;4.03;;
26484;SDS011;18083;50.560;7.262;2024-03-17T04:25:05;5.63;;;3.40;;
26484;SDS011;18083;50.560;7.262;2024-03-17T04:27:32;4.23;;;3.83;;
26484;SDS011;18083;50.560;7.262;2024-03-17T04:30:00;5.90;;;4.40;;
26484;SDS011;18083;50.560;7.262;2024-03-17T04:32:27;5.13;;;3.50;;
26484;SDS011;18083;50.560;7.262;2024-03-17T04:34:54;5.10;;;3.77;;
26484;SDS011;18083;50.560;7.262;2024-03-17T04:37:22;7.07;;;4.30;;
26484;SDS011;18083;50.560;7.262;2024-03-17T04:39:50;6.40;;;3.67;;
26484;SDS011;18083;50.560;7.262;2024-03-17T04:42:18;4.80;;;3.90;;
26484;SDS011;18083;50.560;7.262;2024-03-17T04:44:45;6.30;;;4.40;;
26484;SDS011;18083;50.560;7.262;2024-03-17T04:47:12;5.70;;;4.17;;
26484;SDS011;18083;50.560;7.262;2024-03-17T04:49:42;6.17;;;3.73;;
26484;SDS011;18083;50.560;7.262;2024-03-17T04:52:11;6.63;;;3.80;;
26484;SDS011;18083;50.560;7.262;2024-03-17T04:54:38;7.63;;;5.17;;
26484;SDS011;18083;50.560;7.262;2024-03-17T04:59:42;8.33;;;4.37;;
26484;SDS011;18083;50.560;7.262;2024-03-17T05:02:09;8.03;;;4.60;;
26484;SDS011;18083;50.560;7.262;2024-03-17T05:04:39;6.37;;;4.23;;
26484;SDS011;18083;50.560;7.262;2024-03-17T05:07:08;6.27;;;4.43;;
26484;SDS011;18083;50.560;7.262;2024-03-17T05:09:35;6.80;;;4.87;;
26484;SDS011;18083;50.560;7.262;2024-03-17T05:12:04;8.17;;;4.23;;
26484;SDS011;18083;50.560;7.262;2024-03-17T05:14:32;6.33;;;4.23;;
26484;SDS011;18083;50.560;7.262;2024-03-17T05:16:59;4.53;;;3.63;;
26484;SDS011;18083;50.560;7.262;2024-03-17T05:19:26;9.13;;;4.57;;
26484;SDS011;18083;50.560;7.262;2024-03-17T05:21:53;5.43;;;3.97;;
26484;SDS011;18083;50.560;7.262;2024-03-17T05:24:21;7.07;;;4.40;;
26484;SDS011;18083;50.560;7.262;2024-03-17T05:26:48;8.10;;;3.60;;
26484;SDS011;18083;50.560;7.262;2024-03-17T05:29:15;6.10;;;4.67;;
26484;SDS011;18083;50.560;7.262;2024-03-17T05:31:42;7.33;;;4.27;;
26484;SDS011;18083;50.560;7.262;2024-03-17T05:34:10;6.57;;;4.07;;
26484;SDS011;18083;50.560;7.262;2024-03-17T05:36:38;5.63;;;4.87;;
26484;SDS011;18083;50.560;7.262;2024-03-17T05:39:05;7.43;;;4.50;;
26484;SDS011;18083;50.560;7.262;2024-03-17T05:41:32;5.63;;;4.23;;
26484;SDS011;18083;50.560;7.262;2024-03-17T05:44:00;5.53;;;4.27;;
26484;SDS011;18083;50.560;7.262;2024-03-17T05:46:29;7.00;;;4.80;;
26484;SDS011;18083;50.560;7.262;2024-03-17T05:48:57;7.63;;;4.73;;
26484;SDS011;18083;50.560;7.262;2024-03-17T05:51:24;5.80;;;4.23;;
26484;SDS011;18083;50.560;7.262;2024-03-17T05:53:53;9.43;;;4.43;;
26484;SDS011;18083;50.560;7.262;2024-03-17T05:56:22;5.83;;;4.10;;
26484;SDS011;18083;50.560;7.262;2024-03-17T05:58:55;7.13;;;4.53;;
26484;SDS011;18083;50.560;7.262;2024-03-17T06:01:23;6.10;;;4.53;;
26484;SDS011;18083;50.560;7.262;2024-03-17T06:03:50;8.77;;;5.00;;
26484;SDS011;18083;50.560;7.262;2024-03-17T06:06:33;9.60;;;5.37;;
26484;SDS011;18083;50.560;7.262;2024-03-17T06:09:00;7.97;;;5.03;;
26484;SDS011;18083;50.560;7.262;2024-03-17T06:11:28;5.93;;;4.20;;
26484;SDS011;18083;50.560;7.262;2024-03-17T06:13:56;8.60;;;5.23;;
26484;SDS011;18083;50.560;7.262;2024-03-17T06:16:23;7.97;;;5.40;;
26484;SDS011;18083;50.560;7.262;2024-03-17T06:18:50;7.30;;;5.50;;
26484;SDS011;18083;50.560;7.262;2024-03-17T06:21:20;6.67;;;5.40;;
26484;SDS011;18083;50.560;7.262;2024-03-17T06:23:47;8.70;;;5.50;;
26484;SDS011;18083;50.560;7.262;2024-03-17T06:26:14;7.70;;;5.03;;
26484;SDS011;18083;50.560;7.262;2024-03-17T06:28:53;5.47;;;4.80;;
26484;SDS011;18083;50.560;7.262;2024-03-17T06:31:20;11.17;;;4.80;;
26484;SDS011;18083;50.560;7.262;2024-03-17T06:33:48;9.13;;;5.33;;
26484;SDS011;18083;50.560;7.262;2024-03-17T06:36:22;11.27;;;6.37;;
26484;SDS011;18083;50.560;7.262;2024-03-17T06:38:50;8.03;;;6.60;;
26484;SDS011;18083;50.560;7.262;2024-03-17T06:41:17;8.57;;;6.33;;
26484;SDS011;18083;50.560;7.262;2024-03-17T06:43:45;9.27;;;7.10;;
26484;SDS011;18083;50.560;7.262;2024-03-17T06:46:12;12.07;;;8.33;;
26484;SDS011;18083;50.560;7.262;2024-03-17T06:48:39;11.70;;;7.53;;
26484;SDS011;18083;50.560;7.262;2024-03-17T06:51:08;9.13;;;6.80;;
26484;SDS011;18083;50.560;7.262;2024-03-17T06:53:36;13.10;;;7.83;;
26484;SDS011;18083;50.560;7.262;2024-03-17T06:56:03;13.83;;;8.37;;
26484;SDS011;18083;50.560;7.262;2024-03-17T06:58:31;15.40;;;8.07;;
26484;SDS011;18083;50.560;7.262;2024-03-17T07:00:59;16.10;;;8.63;;
26484;SDS011;18083;50.560;7.262;2024-03-17T07:03:27;13.97;;;8.63;;
26484;SDS011;18083;50.560;7.262;2024-03-17T07:05:56;17.23;;;9.73;;
26484;SDS011;18083;50.560;7.262;2024-03-17T07:08:24;13.60;;;9.47;;
26484;SDS011;18083;50.560;7.262;2024-03-17T07:10:55;15.93;;;9.23;;
26484;SDS011;18083;50.560;7.262;2024-03-17T07:13:22;17.67;;;9.90;;
26484;SDS011;18083;50.560;7.262;2024-03-17T07:15:49;13.33;;;10.33;;
26484;SDS011;18083;50.560;7.262;2024-03-17T07:18:17;14.40;;;9.83;;
26484;SDS011;18083;50.560;7.262;2024-03-17T07:20:44;15.50;;;9.43;;
26484;SDS011;18083;50.560;7.262;2024-03-17T07:23:19;14.23;;;10.37;;
26484;SDS011;18083;50.560;7.262;2024-03-17T07:25:52;15.20;;;11.03;;
26484;SDS011;18083;50.560;7.262;2024-03-17T07:28:20;17.30;;;10.60;;
26484;SDS011;18083;50.560;7.262;2024-03-17T07:33:21;18.00;;;11.37;;
26484;SDS011;18083;50.560;7.262;2024-03-17T07:35:54;17.37;;;10.10;;
26484;SDS011;18083;50.560;7.262;2024-03-17T07:41:13;13.13;;;8.87;;
26484;SDS011;18083;50.560;7.262;2024-03-17T07:43:41;15.50;;;9.63;;
26484;SDS011;18083;50.560;7.262;2024-03-17T07:46:09;15.07;;;9.53;;
26484;SDS011;18083;50.560;7.262;2024-03-17T07:48:38;14.03;;;8.67;;
26484;SDS011;18083;50.560;7.262;2024-03-17T07:51:07;22.43;;;9.53;;
26484;SDS011;18083;50.560;7.262;2024-03-17T07:53:42;13.03;;;9.33;;
26484;SDS011;18083;50.560;7.262;2024-03-17T07:56:11;11.90;;;7.57;;
26484;SDS011;18083;50.560;7.262;2024-03-17T07:58:40;12.73;;;8.33;;
26484;SDS011;18083;50.560;7.262;2024-03-17T08:01:08;12.23;;;7.33;;
26484;SDS011;18083;50.560;7.262;2024-03-17T08:03:36;15.40;;;7.07;;
26484;SDS011;18083;50.560;7.262;2024-03-17T08:08:41;11.40;;;6.73;;
26484;SDS011;18083;50.560;7.262;2024-03-17T08:11:09;8.70;;;6.60;;
26484;SDS011;18083;50.560;7.262;2024-03-17T08:13:36;10.70;;;6.60;;
26484;SDS011;18083;50.560;7.262;2024-03-17T08:16:04;8.67;;;6.37;;
26484;SDS011;18083;50.560;7.262;2024-03-17T08:18:37;10.30;;;7.30;;
26484;SDS011;18083;50.560;7.262;2024-03-17T08:21:05;10.70;;;5.83;;
26484;SDS011;18083;50.560;7.262;2024-03-17T08:23:35;9.87;;;6.90;;
26484;SDS011;18083;50.560;7.262;2024-03-17T08:26:04;8.50;;;6.27;;
26484;SDS011;18083;50.560;7.262;2024-03-17T08:28:32;8.27;;;5.93;;
26484;SDS011;18083;50.560;7.262;2024-03-17T08:31:00;11.03;;;7.13;;
26484;SDS011;18083;50.560;7.262;2024-03-17T08:33:28;12.33;;;6.93;;
26484;SDS011;18083;50.560;7.262;2024-03-17T08:36:06;10.90;;;6.27;;
26484;SDS011;18083;50.560;7.262;2024-03-17T08:38:30;9.43;;;6.20;;
26484;SDS011;18083;50.560;7.262;2024-03-17T08:41:04;8.23;;;6.00;;
26484;SDS011;18083;50.560;7.262;2024-03-17T08:43:32;8.87;;;7.23;;
26484;SDS011;18083;50.560;7.262;2024-03-17T08:46:03;8.43;;;6.07;;
26484;SDS011;18083;50.560;7.262;2024-03-17T08:48:35;11.80;;;6.83;;
26484;SDS011;18083;50.560;7.262;2024-03-17T08:51:02;10.13;;;6.23;;
26484;SDS011;18083;50.560;7.262;2024-03-17T08:53:30;12.47;;;7.17;;
26484;SDS011;18083;50.560;7.262;2024-03-17T08:55:58;10.83;;;6.57;;
26484;SDS011;18083;50.560;7.262;2024-03-17T08:58:26;11.43;;;6.53;;
26484;SDS011;18083;50.560;7.262;2024-03-17T09:00:53;10.57;;;6.17;;
26484;SDS011;18083;50.560;7.262;2024-03-17T09:03:23;7.53;;;5.90;;
26484;SDS011;18083;50.560;7.262;2024-03-17T09:05:52;6.27;;;5.33;;
26484;SDS011;18083;50.560;7.262;2024-03-17T09:08:21;11.60;;;6.67;;
26484;SDS011;18083;50.560;7.262;2024-03-17T09:10:50;9.57;;;5.30;;
26484;SDS011;18083;50.560;7.262;2024-03-17T10:51:17;6.22;;;4.30;;
26484;SDS011;18083;50.560;7.262;2024-03-17T10:54:27;6.37;;;4.60;;
26484;SDS011;18083;50.560;7.262;2024-03-17T11:02:45;5.20;;;4.58;;
26484;SDS011;18083;50.560;7.262;2024-03-17T11:10:48;5.53;;;4.25;;
26484;SDS011;18083;50.560;7.262;2024-03-17T11:13:40;11.68;;;4.75;;
26484;SDS011;18083;50.560;7.262;2024-03-17T11:16:29;6.60;;;4.60;;
26484;SDS011;18083;50.560;7.262;2024-03-17T11:18:38;10.40;;;4.65;;
26484;SDS011;18083;50.560;7.262;2024-03-17T11:26:43;5.50;;;3.90;;
26484;SDS011;18083;50.560;7.262;2024-03-17T11:32:24;7.62;;;5.10;;
26484;SDS011;18083;50.560;7.262;2024-03-17T11:37:40;5.12;;;4.42;;
26484;SDS011;18083;50.560;7.262;2024-03-17T11:39:56;6.95;;;4.20;;
26484;SDS011;18083;50.560;7.262;2024-03-17T11:45:10;6.35;;;5.20;;
26484;SDS011;18083;50.560;7.262;2024-03-17T11:47:53;8.63;;;4.65;;
26484;SDS011;18083;50.560;7.262;2024-03-17T11:50:21;7.40;;;5.60;;
26484;SDS011;18083;50.560;7.262;2024-03-17T11:52:57;5.95;;;5.12;;
26484;SDS011;18083;50.560;7.262;2024-03-17T11:55:17;7.22;;;5.15;;
26484;SDS011;18083;50.560;7.262;2024-03-17T11:57:45;6.05;;;4.83;;
26484;SDS011;18083;50.560;7.262;2024-03-17T12:00:19;6.90;;;5.37;;
26484;SDS011;18083;50.560;7.262;2024-03-17T12:02:47;7.03;;;5.05;;
26484;SDS011;18083;50.560;7.262;2024-03-17T12:05:13;9.63;;;5.67;;
26484;SDS011;18083;50.560;7.262;2024-03-17T12:07:44;7.42;;;4.90;;
26484;SDS011;18083;50.560;7.262;2024-03-17T12:10:11;7.20;;;4.97;;
26484;SDS011;18083;50.560;7.262;2024-03-17T12:12:40;17.20;;;5.85;;
26484;SDS011;18083;50.560;7.262;2024-03-17T12:15:15;6.22;;;4.97;;
26484;SDS011;18083;50.560;7.262;2024-03-17T12:17:39;5.33;;;4.10;;
26484;SDS011;18083;50.560;7.262;2024-03-17T12:20:13;8.08;;;5.28;;
26484;SDS011;18083;50.560;7.262;2024-03-17T12:22:37;7.42;;;5.28;;
26484;SDS011;18083;50.560;7.262;2024-03-17T12:25:05;8.35;;;5.45;;
26484;SDS011;18083;50.560;7.262;2024-03-17T12:27:34;5.50;;;4.53;;
26484;SDS011;18083;50.560;7.262;2024-03-17T12:30:01;5.72;;;4.87;;
26484;SDS011;18083;50.560;7.262;2024-03-17T12:32:29;7.33;;;4.75;;
26484;SDS011;18083;50.560;7.262;2024-03-17T12:34:56;9.38;;;5.12;;
26484;SDS011;18083;50.560;7.262;2024-03-17T12:37:27;8.48;;;5.12;;
26484;SDS011;18083;50.560;7.262;2024-03-17T12:40:00;7.92;;;4.90;;
26484;SDS011;18083;50.560;7.262;2024-03-17T12:42:29;9.58;;;4.83;;
26484;SDS011;18083;50.560;7.262;2024-03-17T12:45:01;9.08;;;5.72;;
26484;SDS011;18083;50.560;7.262;2024-03-17T12:47:30;7.97;;;5.58;;
26484;SDS011;18083;50.560;7.262;2024-03-17T12:49:58;6.37;;;4.92;;
26484;SDS011;18083;50.560;7.262;2024-03-17T12:52:29;7.85;;;5.40;;
26484;SDS011;18083;50.560;7.262;2024-03-17T12:57:50;9.00;;;5.03;;
26484;SDS011;18083;50.560;7.262;2024-03-17T13:00:35;8.03;;;4.55;;
26484;SDS011;18083;50.560;7.262;2024-03-17T13:03:03;4.95;;;4.30;;
26484;SDS011;18083;50.560;7.262;2024-03-17T13:05:32;6.60;;;4.45;;
26484;SDS011;18083;50.560;7.262;2024-03-17T13:07:59;6.60;;;5.17;;
26484;SDS011;18083;50.560;7.262;2024-03-17T13:10:28;8.10;;;5.12;;
26484;SDS011;18083;50.560;7.262;2024-03-17T13:12:59;7.37;;;4.75;;
26484;SDS011;18083;50.560;7.262;2024-03-17T13:15:28;5.33;;;4.00;;
26484;SDS011;18083;50.560;7.262;2024-03-17T13:17:58;7.62;;;5.97;;
26484;SDS011;18083;50.560;7.262;2024-03-17T13:20:26;5.90;;;4.28;;
26484;SDS011;18083;50.560;7.262;2024-03-17T13:22:54;6.70;;;4.47;;
26484;SDS011;18083;50.560;7.262;2024-03-17T13:25:21;6.25;;;5.10;;
26484;SDS011;18083;50.560;7.262;2024-03-17T13:27:50;8.73;;;4.42;;
26484;SDS011;18083;50.560;7.262;2024-03-17T13:30:18;10.63;;;5.33;;
26484;SDS011;18083;50.560;7.262;2024-03-17T13:32:48;5.78;;;4.40;;
26484;SDS011;18083;50.560;7.262;2024-03-17T13:35:18;7.60;;;4.30;;
26484;SDS011;18083;50.560;7.262;2024-03-17T13:37:45;9.25;;;5.35;;
26484;SDS011;18083;50.560;7.262;2024-03-17T13:40:14;8.43;;;4.55;;
26484;SDS011;18083;50.560;7.262;2024-03-17T13:42:43;7.53;;;4.90;;
26484;SDS011;18083;50.560;7.262;2024-03-17T13:45:13;6.28;;;4.47;;
26484;SDS011;18083;50.560;7.262;2024-03-17T13:47:41;7.92;;;5.15;;
26484;SDS011;18083;50.560;7.262;2024-03-17T13:50:09;6.78;;;4.03;;
26484;SDS011;18083;50.560;7.262;2024-03-17T13:52:42;4.55;;;3.92;;
26484;SDS011;18083;50.560;7.262;2024-03-17T13:55:14;10.65;;;5.65;;
26484;SDS011;18083;50.560;7.262;2024-03-17T13:57:38;6.47;;;4.25;;
26484;SDS011;18083;50.560;7.262;2024-03-17T14:00:06;7.33;;;4.25;;
26484;SDS011;18083;50.560;7.262;2024-03-17T14:02:34;7.62;;;5.08;;
26484;SDS011;18083;50.560;7.262;2024-03-17T14:05:01;9.75;;;4.30;;
26484;SDS011;18083;50.560;7.262;2024-03-17T14:07:30;8.38;;;4.95;;
26484;SDS011;18083;50.560;7.262;2024-03-17T14:09:58;8.73;;;4.50;;
26484;SDS011;18083;50.560;7.262;2024-03-17T14:12:25;7.37;;;4.05;;
26484;SDS011;18083;50.560;7.262;2024-03-17T14:14:52;5.95;;;3.45;;
26484;SDS011;18083;50.560;7.262;2024-03-17T14:17:20;7.30;;;4.65;;
26484;SDS011;18083;50.560;7.262;2024-03-17T14:19:47;6.40;;;3.98;;
26484;SDS011;18083;50.560;7.262;2024-03-17T14:22:14;5.97;;;4.40;;
26484;SDS011;18083;50.560;7.262;2024-03-17T14:24:41;5.65;;;4.05;;
26484;SDS011;18083;50.560;7.262;2024-03-17T14:27:09;5.55;;;4.75;;
26484;SDS011;18083;50.560;7.262;2024-03-17T14:29:37;7.53;;;4.17;;
26484;SDS011;18083;50.560;7.262;2024-03-17T14:32:05;6.28;;;4.25;;
26484;SDS011;18083;50.560;7.262;2024-03-17T14:34:33;7.47;;;4.33;;
26484;SDS011;18083;50.560;7.262;2024-03-17T14:37:02;4.90;;;4.15;;
26484;SDS011;18083;50.560;7.262;2024-03-17T14:39:30;5.95;;;4.08;;
26484;SDS011;18083;50.560;7.262;2024-03-17T14:41:57;6.00;;;4.10;;
26484;SDS011;18083;50.560;7.262;2024-03-17T14:44:25;5.00;;;4.12;;
26484;SDS011;18083;50.560;7.262;2024-03-17T14:46:52;5.20;;;4.25;;
26484;SDS011;18083;50.560;7.262;2024-03-17T14:49:21;5.17;;;3.60;;
26484;SDS011;18083;50.560;7.262;2024-03-17T14:51:48;6.05;;;4.08;;
26484;SDS011;18083;50.560;7.262;2024-03-17T14:54:15;4.12;;;3.22;;
26484;SDS011;18083;50.560;7.262;2024-03-17T14:56:43;6.30;;;5.03;;
26484;SDS011;18083;50.560;7.262;2024-03-17T14:59:10;5.05;;;3.75;;
26484;SDS011;18083;50.560;7.262;2024-03-17T15:01:38;4.05;;;3.65;;
26484;SDS011;18083;50.560;7.262;2024-03-17T15:04:05;4.03;;;2.83;;
26484;SDS011;18083;50.560;7.262;2024-03-17T15:06:33;6.40;;;3.85;;
26484;SDS011;18083;50.560;7.262;2024-03-17T15:09:01;5.65;;;4.00;;
26484;SDS011;18083;50.560;7.262;2024-03-17T15:11:29;5.92;;;3.45;;
26484;SDS011;18083;50.560;7.262;2024-03-17T15:13:56;6.05;;;3.52;;
26484;SDS011;18083;50.560;7.262;2024-03-17T15:16:24;3.47;;;3.17;;
26484;SDS011;18083;50.560;7.262;2024-03-17T15:18:51;4.33;;;2.83;;
26484;SDS011;18083;50.560;7.262;2024-03-17T15:21:19;5.10;;;3.50;;
26484;SDS011;18083;50.560;7.262;2024-03-17T15:23:47;6.65;;;3.25;;
26484;SDS011;18083;50.560;7.262;2024-03-17T15:26:14;11.78;;;4.00;;
26484;SDS011;18083;50.560;7.262;2024-03-17T15:28:43;7.60;;;3.58;;
26484;SDS011;18083;50.560;7.262;2024-03-17T15:31:11;7.55;;;4.12;;
26484;SDS011;18083;50.560;7.262;2024-03-17T15:33:38;6.90;;;3.17;;
26484;SDS011;18083;50.560;7.262;2024-03-17T15:36:09;4.03;;;3.55;;
26484;SDS011;18083;50.560;7.262;2024-03-17T15:38:37;4.78;;;2.80;;
26484;SDS011;18083;50.560;7.262;2024-03-17T15:41:05;4.92;;;3.02;;
26484;SDS011;18083;50.560;7.262;2024-03-17T15:43:35;9.20;;;3.72;;
26484;SDS011;18083;50.560;7.262;2024-03-17T15:46:08;6.50;;;3.65;;
26484;SDS011;18083;50.560;7.262;2024-03-17T15:48:35;6.67;;;3.70;;
26484;SDS011;18083;50.560;7.262;2024-03-17T15:51:02;3.92;;;2.70;;
26484;SDS011;18083;50.560;7.262;2024-03-17T15:53:30;2.90;;;2.17;;
26484;SDS011;18083;50.560;7.262;2024-03-17T15:55:57;4.00;;;2.90;;
26484;SDS011;18083;50.560;7.262;2024-03-17T15:58:25;6.17;;;2.35;;
26484;SDS011;18083;50.560;7.262;2024-03-17T16:00:54;4.25;;;2.27;;
26484;SDS011;18083;50.560;7.262;2024-03-17T16:03:27;3.55;;;2.45;;
26484;SDS011;18083;50.560;7.262;2024-03-17T16:05:52;4.28;;;1.98;;
26484;SDS011;18083;50.560;7.262;2024-03-17T16:08:19;3.87;;;2.17;;
26484;SDS011;18083;50.560;7.262;2024-03-17T16:10:54;2.85;;;2.22;;
26484;SDS011;18083;50.560;7.262;2024-03-17T16:13:22;2.70;;;2.45;;
26484;SDS011;18083;50.560;7.262;2024-03-17T16:15:51;3.52;;;2.02;;
26484;SDS011;18083;50.560;7.262;2024-03-17T16:18:20;4.25;;;2.87;;
26484;SDS011;18083;50.560;7.262;2024-03-17T16:20:56;3.40;;;2.10;;
26484;SDS011;18083;50.560;7.262;2024-03-17T16:23:21;4.28;;;2.15;;
26484;SDS011;18083;50.560;7.262;2024-03-17T16:25:48;5.20;;;3.62;;
26484;SDS011;18083;50.560;7.262;2024-03-17T16:28:16;4.33;;;2.47;;
26484;SDS011;18083;50.560;7.262;2024-03-17T16:30:44;2.58;;;1.57;;
26484;SDS011;18083;50.560;7.262;2024-03-17T16:33:11;3.05;;;2.10;;
26484;SDS011;18083;50.560;7.262;2024-03-17T16:35:39;2.65;;;1.87;;
26484;SDS011;18083;50.560;7.262;2024-03-17T16:38:08;4.10;;;2.15;;
26484;SDS011;18083;50.560;7.262;2024-03-17T16:40:36;2.80;;;1.92;;
26484;SDS011;18083;50.560;7.262;2024-03-17T16:43:03;3.15;;;1.95;;
26484;SDS011;18083;50.560;7.262;2024-03-17T16:45:31;3.35;;;1.98;;
26484;SDS011;18083;50.560;7.262;2024-03-17T16:47:58;4.28;;;2.10;;
26484;SDS011;18083;50.560;7.262;2024-03-17T16:50:25;4.40;;;3.08;;
26484;SDS011;18083;50.560;7.262;2024-03-17T16:52:52;4.70;;;2.83;;
26484;SDS011;18083;50.560;7.262;2024-03-17T16:55:20;4.75;;;2.58;;
26484;SDS011;18083;50.560;7.262;2024-03-17T16:57:47;4.72;;;2.77;;
26484;SDS011;18083;50.560;7.262;2024-03-17T17:00:16;7.40;;;2.45;;
26484;SDS011;18083;50.560;7.262;2024-03-17T17:02:44;5.17;;;2.83;;
26484;SDS011;18083;50.560;7.262;2024-03-17T17:05:11;7.12;;;2.55;;
26484;SDS011;18083;50.560;7.262;2024-03-17T17:07:43;10.93;;;2.72;;
26484;SDS011;18083;50.560;7.262;2024-03-17T17:10:09;5.03;;;1.95;;
26484;SDS011;18083;50.560;7.262;2024-03-17T17:12:38;4.03;;;3.37;;
26484;SDS011;18083;50.560;7.262;2024-03-17T17:15:13;4.08;;;2.50;;
26484;SDS011;18083;50.560;7.262;2024-03-17T17:17:36;3.75;;;2.15;;
26484;SDS011;18083;50.560;7.262;2024-03-17T17:20:04;3.42;;;2.15;;
26484;SDS011;18083;50.560;7.262;2024-03-17T17:22:32;5.45;;;3.15;;
26484;SDS011;18083;50.560;7.262;2024-03-17T17:24:59;5.12;;;3.65;;
26484;SDS011;18083;50.560;7.262;2024-03-17T17:27:26;5.95;;;3.58;;
26484;SDS011;18083;50.560;7.262;2024-03-17T17:29:54;9.20;;;6.92;;
26484;SDS011;18083;50.560;7.262;2024-03-17T17:32:21;8.93;;;7.62;;
26484;SDS011;18083;50.560;7.262;2024-03-17T17:34:48;5.03;;;3.92;;
26484;SDS011;18083;50.560;7.262;2024-03-17T17:37:17;3.45;;;2.92;;
26484;SDS011;18083;50.560;7.262;2024-03-17T17:39:44;6.00;;;3.40;;
26484;SDS011;18083;50.560;7.262;2024-03-17T17:42:12;6.12;;;3.98;;
26484;SDS011;18083;50.560;7.262;2024-03-17T17:44:39;5.10;;;3.60;;
26484;SDS011;18083;50.560;7.262;2024-03-17T17:50:03;3.98;;;3.02;;
26484;SDS011;18083;50.560;7.262;2024-03-17T17:55:10;5.15;;;4.05;;
26484;SDS011;18083;50.560;7.262;2024-03-17T17:57:38;5.05;;;3.77;;
26484;SDS011;18083;50.560;7.262;2024-03-17T18:00:29;3.35;;;3.05;;
26484;SDS011;18083;50.560;7.262;2024-03-17T18:02:46;8.13;;;3.85;;
26484;SDS011;18083;50.560;7.262;2024-03-17T18:05:16;9.00;;;3.98;;
26484;SDS011;18083;50.560;7.262;2024-03-17T18:07:46;4.60;;;3.52;;
26484;SDS011;18083;50.560;7.262;2024-03-17T18:10:16;5.92;;;3.90;;
26484;SDS011;18083;50.560;7.262;2024-03-17T18:12:58;5.28;;;3.45;;
26484;SDS011;18083;50.560;7.262;2024-03-17T18:15:36;5.37;;;2.92;;
26484;SDS011;18083;50.560;7.262;2024-03-17T18:18:20;5.35;;;3.22;;
26484;SDS011;18083;50.560;7.262;2024-03-17T18:20:57;3.95;;;2.45;;
26484;SDS011;18083;50.560;7.262;2024-03-17T18:23:26;6.25;;;3.55;;
26484;SDS011;18083;50.560;7.262;2024-03-17T18:25:54;12.50;;;3.75;;
26484;SDS011;18083;50.560;7.262;2024-03-17T18:28:32;5.80;;;2.92;;
26484;SDS011;18083;50.560;7.262;2024-03-17T18:31:01;5.20;;;3.80;;
26484;SDS011;18083;50.560;7.262;2024-03-17T18:33:32;8.85;;;3.05;;
26484;SDS011;18083;50.560;7.262;2024-03-17T18:36:06;6.53;;;3.62;;
26484;SDS011;18083;50.560;7.262;2024-03-17T18:38:39;5.47;;;4.03;;
26484;SDS011;18083;50.560;7.262;2024-03-17T18:41:09;6.70;;;4.15;;
26484;SDS011;18083;50.560;7.262;2024-03-17T18:46:42;5.83;;;3.65;;
26484;SDS011;18083;50.560;7.262;2024-03-17T18:49:01;3.50;;;2.75;;
26484;SDS011;18083;50.560;7.262;2024-03-17T18:54:09;6.67;;;3.47;;
26484;SDS011;18083;50.560;7.262;2024-03-17T18:56:37;8.35;;;4.37;;
26484;SDS011;18083;50.560;7.262;2024-03-17T18:59:04;8.45;;;6.10;;
26484;SDS011;18083;50.560;7.262;2024-03-17T19:01:32;9.13;;;5.92;;
26484;SDS011;18083;50.560;7.262;2024-03-17T19:03:59;6.97;;;5.80;;
26484;SDS011;18083;50.560;7.262;2024-03-17T19:09:15;8.40;;;5.70;;
26484;SDS011;18083;50.560;7.262;2024-03-17T19:11:46;9.55;;;5.25;;
26484;SDS011;18083;50.560;7.262;2024-03-17T19:14:17;8.23;;;5.58;;
26484;SDS011;18083;50.560;7.262;2024-03-17T19:16:42;15.78;;;8.73;;
26484;SDS011;18083;50.560;7.262;2024-03-17T19:19:13;11.38;;;5.53;;
26484;SDS011;18083;50.560;7.262;2024-03-17T19:21:39;6.95;;;4.90;;
26484;SDS011;18083;50.560;7.262;2024-03-17T19:26:49;6.17;;;5.57;;
26484;SDS011;18083;50.560;7.262;2024-03-17T19:29:17;8.45;;;5.90;;
26484;SDS011;18083;50.560;7.262;2024-03-17T19:34:27;10.07;;;6.80;;
26484;SDS011;18083;50.560;7.262;2024-03-17T19:36:48;9.95;;;6.37;;
26484;SDS011;18083;50.560;7.262;2024-03-17T19:39:16;7.27;;;5.60;;
26484;SDS011;18083;50.560;7.262;2024-03-17T19:41:43;9.37;;;7.00;;
26484;SDS011;18083;50.560;7.262;2024-03-17T19:44:12;7.45;;;5.22;;
26484;SDS011;18083;50.560;7.262;2024-03-17T19:46:45;8.20;;;6.20;;
26484;SDS011;18083;50.560;7.262;2024-03-17T19:49:11;10.18;;;6.35;;
26484;SDS011;18083;50.560;7.262;2024-03-17T19:51:45;7.92;;;6.37;;
26484;SDS011;18083;50.560;7.262;2024-03-17T19:54:08;8.78;;;6.35;;
26484;SDS011;18083;50.560;7.262;2024-03-17T19:56:40;11.43;;;7.47;;
26484;SDS011;18083;50.560;7.262;2024-03-17T19:59:08;7.90;;;6.83;;
26484;SDS011;18083;50.560;7.262;2024-03-17T20:01:36;13.95;;;8.30;;
26484;SDS011;18083;50.560;7.262;2024-03-17T20:04:04;15.47;;;9.50;;
26484;SDS011;18083;50.560;7.262;2024-03-17T20:06:31;10.20;;;6.77;;
26484;SDS011;18083;50.560;7.262;2024-03-17T20:08:59;11.33;;;8.40;;
26484;SDS011;18083;50.560;7.262;2024-03-17T20:11:26;13.43;;;9.00;;
26484;SDS011;18083;50.560;7.262;2024-03-17T20:13:53;11.33;;;8.88;;
26484;SDS011;18083;50.560;7.262;2024-03-17T20:16:24;9.57;;;6.93;;
26484;SDS011;18083;50.560;7.262;2024-03-17T20:18:56;10.37;;;7.23;;
26484;SDS011;18083;50.560;7.262;2024-03-17T20:21:23;10.85;;;8.28;;
26484;SDS011;18083;50.560;7.262;2024-03-17T20:23:51;8.63;;;7.47;;
26484;SDS011;18083;50.560;7.262;2024-03-17T20:26:19;12.83;;;8.20;;
26484;SDS011;18083;50.560;7.262;2024-03-17T20:28:48;15.35;;;8.30;;
26484;SDS011;18083;50.560;7.262;2024-03-17T20:31:16;13.93;;;8.63;;
26484;SDS011;18083;50.560;7.262;2024-03-17T20:33:43;13.87;;;8.73;;
26484;SDS011;18083;50.560;7.262;2024-03-17T20:36:11;13.65;;;9.33;;